sensor_id;sensor_type;location;lat;lon;timestamp;P1;durP1;ratioP1;P2;durP2;ratioP2
42168;SDS011;27838;43.858;25.974;2022-12-08T00:01:04;97.45;;;26.65;;
42168;SDS011;27838;43.858;25.974;2022-12-08T00:03:35;72.60;;;24.88;;
42168;SDS011;27838;43.858;25.974;2022-12-08T00:06:02;82.00;;;25.45;;
42168;SDS011;27838;43.858;25.974;2022-12-08T00:08:47;64.88;;;23.73;;
42168;SDS011;27838;43.858;25.974;2022-12-08T00:11:31;73.72;;;24.40;;
42168;SDS011;27838;43.858;25.974;2022-12-08T00:13:57;64.20;;;24.25;;
42168;SDS011;27838;43.858;25.974;2022-12-08T00:16:25;73.22;;;24.95;;
42168;SDS011;27838;43.858;25.974;2022-12-08T00:18:51;53.25;;;22.70;;
42168;SDS011;27838;43.858;25.974;2022-12-08T00:21:18;64.43;;;24.13;;
42168;SDS011;27838;43.858;25.974;2022-12-08T00:23:44;50.10;;;22.92;;
42168;SDS011;27838;43.858;25.974;2022-12-08T00:26:11;49.67;;;22.88;;
42168;SDS011;27838;43.858;25.974;2022-12-08T00:28:37;56.00;;;23.05;;
42168;SDS011;27838;43.858;25.974;2022-12-08T00:31:07;53.60;;;23.58;;
42168;SDS011;27838;43.858;25.974;2022-12-08T00:33:35;52.97;;;23.35;;
42168;SDS011;27838;43.858;25.974;2022-12-08T00:36:08;49.95;;;22.83;;
42168;SDS011;27838;43.858;25.974;2022-12-08T00:38:37;48.30;;;22.77;;
42168;SDS011;27838;43.858;25.974;2022-12-08T00:41:17;54.83;;;23.73;;
42168;SDS011;27838;43.858;25.974;2022-12-08T00:46:34;47.65;;;23.33;;
42168;SDS011;27838;43.858;25.974;2022-12-08T00:49:01;47.53;;;22.98;;
42168;SDS011;27838;43.858;25.974;2022-12-08T00:51:29;54.97;;;26.15;;
42168;SDS011;27838;43.858;25.974;2022-12-08T00:53:56;55.03;;;25.45;;
42168;SDS011;27838;43.858;25.974;2022-12-08T00:56:23;56.67;;;26.45;;
42168;SDS011;27838;43.858;25.974;2022-12-08T00:58:51;53.13;;;25.08;;
42168;SDS011;27838;43.858;25.974;2022-12-08T01:01:17;48.42;;;23.25;;
42168;SDS011;27838;43.858;25.974;2022-12-08T01:03:44;53.15;;;23.95;;
42168;SDS011;27838;43.858;25.974;2022-12-08T01:06:10;52.08;;;23.60;;
42168;SDS011;27838;43.858;25.974;2022-12-08T01:08:37;45.97;;;23.58;;
42168;SDS011;27838;43.858;25.974;2022-12-08T01:11:05;42.30;;;21.40;;
42168;SDS011;27838;43.858;25.974;2022-12-08T01:13:33;60.00;;;24.67;;
42168;SDS011;27838;43.858;25.974;2022-12-08T01:16:00;48.35;;;23.83;;
42168;SDS011;27838;43.858;25.974;2022-12-08T01:18:27;54.72;;;25.48;;
42168;SDS011;27838;43.858;25.974;2022-12-08T01:20:54;50.33;;;23.58;;
42168;SDS011;27838;43.858;25.974;2022-12-08T01:23:27;50.45;;;24.55;;
42168;SDS011;27838;43.858;25.974;2022-12-08T01:25:54;49.70;;;24.65;;
42168;SDS011;27838;43.858;25.974;2022-12-08T01:28:20;48.53;;;24.42;;
42168;SDS011;27838;43.858;25.974;2022-12-08T01:30:47;48.95;;;24.60;;
42168;SDS011;27838;43.858;25.974;2022-12-08T01:33:13;50.00;;;24.92;;
42168;SDS011;27838;43.858;25.974;2022-12-08T01:35:40;50.63;;;24.83;;
42168;SDS011;27838;43.858;25.974;2022-12-08T01:38:06;59.40;;;27.05;;
42168;SDS011;27838;43.858;25.974;2022-12-08T01:40:33;56.50;;;25.70;;
42168;SDS011;27838;43.858;25.974;2022-12-08T01:42:59;61.75;;;25.30;;
42168;SDS011;27838;43.858;25.974;2022-12-08T01:45:27;64.43;;;25.48;;
42168;SDS011;27838;43.858;25.974;2022-12-08T01:48:01;52.60;;;26.40;;
42168;SDS011;27838;43.858;25.974;2022-12-08T01:50:31;49.60;;;25.35;;
42168;SDS011;27838;43.858;25.974;2022-12-08T01:53:05;56.45;;;25.05;;
42168;SDS011;27838;43.858;25.974;2022-12-08T01:55:42;52.63;;;25.38;;
42168;SDS011;27838;43.858;25.974;2022-12-08T01:58:20;47.63;;;23.50;;
42168;SDS011;27838;43.858;25.974;2022-12-08T02:00:57;61.58;;;22.90;;
42168;SDS011;27838;43.858;25.974;2022-12-08T02:06:12;48.05;;;24.20;;
42168;SDS011;27838;43.858;25.974;2022-12-08T02:08:40;46.22;;;23.42;;
42168;SDS011;27838;43.858;25.974;2022-12-08T02:11:07;53.92;;;24.13;;
42168;SDS011;27838;43.858;25.974;2022-12-08T02:13:35;49.08;;;23.80;;
42168;SDS011;27838;43.858;25.974;2022-12-08T02:24:46;52.55;;;24.27;;
42168;SDS011;27838;43.858;25.974;2022-12-08T02:27:41;56.35;;;25.02;;
42168;SDS011;27838;43.858;25.974;2022-12-08T02:30:37;56.67;;;23.42;;
42168;SDS011;27838;43.858;25.974;2022-12-08T02:39:21;57.55;;;24.55;;
42168;SDS011;27838;43.858;25.974;2022-12-08T02:45:30;52.45;;;25.27;;
42168;SDS011;27838;43.858;25.974;2022-12-08T02:47:36;57.35;;;26.05;;
42168;SDS011;27838;43.858;25.974;2022-12-08T02:50:03;59.67;;;26.10;;
42168;SDS011;27838;43.858;25.974;2022-12-08T02:54:58;52.97;;;24.45;;
42168;SDS011;27838;43.858;25.974;2022-12-08T03:03:27;46.00;;;21.52;;
42168;SDS011;27838;43.858;25.974;2022-12-08T03:08:54;45.45;;;22.33;;
42168;SDS011;27838;43.858;25.974;2022-12-08T03:14:27;48.72;;;22.50;;
42168;SDS011;27838;43.858;25.974;2022-12-08T03:16:55;46.47;;;22.30;;
42168;SDS011;27838;43.858;25.974;2022-12-08T03:19:25;51.75;;;24.15;;
42168;SDS011;27838;43.858;25.974;2022-12-08T03:21:56;50.42;;;22.38;;
42168;SDS011;27838;43.858;25.974;2022-12-08T03:24:30;53.10;;;23.92;;
42168;SDS011;27838;43.858;25.974;2022-12-08T03:27:01;43.90;;;22.88;;
42168;SDS011;27838;43.858;25.974;2022-12-08T03:29:31;49.90;;;23.80;;
42168;SDS011;27838;43.858;25.974;2022-12-08T03:32:09;46.60;;;21.48;;
42168;SDS011;27838;43.858;25.974;2022-12-08T03:34:41;48.90;;;21.90;;
42168;SDS011;27838;43.858;25.974;2022-12-08T03:37:11;50.95;;;22.15;;
42168;SDS011;27838;43.858;25.974;2022-12-08T03:39:38;48.83;;;22.67;;
42168;SDS011;27838;43.858;25.974;2022-12-08T03:42:04;48.67;;;21.70;;
42168;SDS011;27838;43.858;25.974;2022-12-08T03:44:31;46.63;;;20.63;;
42168;SDS011;27838;43.858;25.974;2022-12-08T03:46:58;46.33;;;20.50;;
42168;SDS011;27838;43.858;25.974;2022-12-08T03:49:24;45.75;;;21.60;;
42168;SDS011;27838;43.858;25.974;2022-12-08T03:51:51;51.00;;;22.25;;
42168;SDS011;27838;43.858;25.974;2022-12-08T03:54:17;49.25;;;22.45;;
42168;SDS011;27838;43.858;25.974;2022-12-08T03:56:44;45.38;;;21.88;;
42168;SDS011;27838;43.858;25.974;2022-12-08T03:59:10;51.45;;;22.80;;
42168;SDS011;27838;43.858;25.974;2022-12-08T04:01:37;49.10;;;22.27;;
42168;SDS011;27838;43.858;25.974;2022-12-08T04:04:04;46.60;;;20.45;;
42168;SDS011;27838;43.858;25.974;2022-12-08T04:06:30;46.63;;;21.90;;
42168;SDS011;27838;43.858;25.974;2022-12-08T04:08:57;46.47;;;21.08;;
42168;SDS011;27838;43.858;25.974;2022-12-08T04:11:23;42.42;;;20.02;;
42168;SDS011;27838;43.858;25.974;2022-12-08T04:13:50;44.33;;;19.45;;
42168;SDS011;27838;43.858;25.974;2022-12-08T04:16:17;35.75;;;18.38;;
42168;SDS011;27838;43.858;25.974;2022-12-08T04:18:47;41.83;;;18.00;;
42168;SDS011;27838;43.858;25.974;2022-12-08T04:21:13;43.78;;;19.13;;
42168;SDS011;27838;43.858;25.974;2022-12-08T04:23:40;39.67;;;18.52;;
42168;SDS011;27838;43.858;25.974;2022-12-08T04:26:07;43.58;;;20.80;;
42168;SDS011;27838;43.858;25.974;2022-12-08T04:28:34;48.55;;;21.05;;
42168;SDS011;27838;43.858;25.974;2022-12-08T04:31:01;43.30;;;19.67;;
42168;SDS011;27838;43.858;25.974;2022-12-08T04:33:28;41.33;;;19.48;;
42168;SDS011;27838;43.858;25.974;2022-12-08T04:35:54;43.80;;;20.05;;
42168;SDS011;27838;43.858;25.974;2022-12-08T04:38:21;41.10;;;19.77;;
42168;SDS011;27838;43.858;25.974;2022-12-08T04:40:48;42.63;;;20.60;;
42168;SDS011;27838;43.858;25.974;2022-12-08T04:43:14;39.20;;;20.92;;
42168;SDS011;27838;43.858;25.974;2022-12-08T04:45:41;41.53;;;19.92;;
42168;SDS011;27838;43.858;25.974;2022-12-08T04:48:08;43.65;;;20.60;;
42168;SDS011;27838;43.858;25.974;2022-12-08T04:50:37;40.55;;;18.80;;
42168;SDS011;27838;43.858;25.974;2022-12-08T04:53:05;36.70;;;19.02;;
42168;SDS011;27838;43.858;25.974;2022-12-08T04:55:32;35.55;;;18.60;;
42168;SDS011;27838;43.858;25.974;2022-12-08T04:57:59;36.60;;;18.48;;
42168;SDS011;27838;43.858;25.974;2022-12-08T05:00:25;35.75;;;16.58;;
42168;SDS011;27838;43.858;25.974;2022-12-08T05:02:52;35.00;;;18.65;;
42168;SDS011;27838;43.858;25.974;2022-12-08T05:05:18;32.75;;;16.65;;
42168;SDS011;27838;43.858;25.974;2022-12-08T05:07:45;31.95;;;17.83;;
42168;SDS011;27838;43.858;25.974;2022-12-08T05:10:11;32.75;;;16.98;;
42168;SDS011;27838;43.858;25.974;2022-12-08T05:12:38;32.17;;;17.35;;
42168;SDS011;27838;43.858;25.974;2022-12-08T05:15:05;29.13;;;17.20;;
42168;SDS011;27838;43.858;25.974;2022-12-08T05:17:32;32.00;;;17.63;;
42168;SDS011;27838;43.858;25.974;2022-12-08T05:19:58;28.00;;;16.70;;
42168;SDS011;27838;43.858;25.974;2022-12-08T05:22:25;30.85;;;17.30;;
42168;SDS011;27838;43.858;25.974;2022-12-08T05:24:51;36.88;;;17.40;;
42168;SDS011;27838;43.858;25.974;2022-12-08T05:27:18;33.70;;;16.35;;
42168;SDS011;27838;43.858;25.974;2022-12-08T05:29:44;28.45;;;16.05;;
42168;SDS011;27838;43.858;25.974;2022-12-08T05:32:12;28.35;;;15.50;;
42168;SDS011;27838;43.858;25.974;2022-12-08T05:34:38;31.60;;;17.65;;
42168;SDS011;27838;43.858;25.974;2022-12-08T05:37:05;29.15;;;17.13;;
42168;SDS011;27838;43.858;25.974;2022-12-08T05:39:31;29.50;;;15.70;;
42168;SDS011;27838;43.858;25.974;2022-12-08T05:41:58;28.63;;;15.15;;
42168;SDS011;27838;43.858;25.974;2022-12-08T05:44:25;26.52;;;15.23;;
42168;SDS011;27838;43.858;25.974;2022-12-08T05:46:52;27.77;;;15.98;;
42168;SDS011;27838;43.858;25.974;2022-12-08T05:49:18;27.67;;;15.55;;
42168;SDS011;27838;43.858;25.974;2022-12-08T05:51:45;24.73;;;14.93;;
42168;SDS011;27838;43.858;25.974;2022-12-08T05:54:11;23.60;;;14.38;;
42168;SDS011;27838;43.858;25.974;2022-12-08T05:56:39;26.73;;;15.50;;
42168;SDS011;27838;43.858;25.974;2022-12-08T05:59:05;27.80;;;15.80;;
42168;SDS011;27838;43.858;25.974;2022-12-08T06:01:32;28.08;;;14.90;;
42168;SDS011;27838;43.858;25.974;2022-12-08T06:04:00;28.95;;;14.70;;
42168;SDS011;27838;43.858;25.974;2022-12-08T06:06:28;28.52;;;15.38;;
42168;SDS011;27838;43.858;25.974;2022-12-08T06:08:56;29.33;;;15.77;;
42168;SDS011;27838;43.858;25.974;2022-12-08T06:11:23;24.70;;;15.05;;
42168;SDS011;27838;43.858;25.974;2022-12-08T06:13:53;28.90;;;16.65;;
42168;SDS011;27838;43.858;25.974;2022-12-08T06:16:20;26.10;;;15.73;;
42168;SDS011;27838;43.858;25.974;2022-12-08T06:18:47;41.83;;;16.77;;
42168;SDS011;27838;43.858;25.974;2022-12-08T06:21:14;34.17;;;16.55;;
42168;SDS011;27838;43.858;25.974;2022-12-08T06:23:42;30.15;;;15.38;;
42168;SDS011;27838;43.858;25.974;2022-12-08T06:26:10;33.13;;;16.27;;
42168;SDS011;27838;43.858;25.974;2022-12-08T06:28:39;24.88;;;15.18;;
42168;SDS011;27838;43.858;25.974;2022-12-08T06:31:07;26.20;;;14.63;;
42168;SDS011;27838;43.858;25.974;2022-12-08T06:33:35;23.48;;;15.57;;
42168;SDS011;27838;43.858;25.974;2022-12-08T06:36:03;24.17;;;15.15;;
42168;SDS011;27838;43.858;25.974;2022-12-08T06:38:30;26.80;;;15.40;;
42168;SDS011;27838;43.858;25.974;2022-12-08T06:40:57;23.25;;;14.23;;
42168;SDS011;27838;43.858;25.974;2022-12-08T06:43:25;25.40;;;13.68;;
42168;SDS011;27838;43.858;25.974;2022-12-08T06:45:52;30.38;;;13.88;;
42168;SDS011;27838;43.858;25.974;2022-12-08T06:48:19;29.70;;;14.52;;
42168;SDS011;27838;43.858;25.974;2022-12-08T06:50:45;23.88;;;13.60;;
42168;SDS011;27838;43.858;25.974;2022-12-08T06:53:13;24.15;;;14.18;;
42168;SDS011;27838;43.858;25.974;2022-12-08T06:55:44;28.48;;;14.45;;
42168;SDS011;27838;43.858;25.974;2022-12-08T06:58:12;29.02;;;15.88;;
42168;SDS011;27838;43.858;25.974;2022-12-08T07:00:39;30.27;;;16.95;;
42168;SDS011;27838;43.858;25.974;2022-12-08T07:03:07;32.90;;;17.15;;
42168;SDS011;27838;43.858;25.974;2022-12-08T07:05:35;34.95;;;16.88;;
42168;SDS011;27838;43.858;25.974;2022-12-08T07:08:03;34.30;;;17.40;;
42168;SDS011;27838;43.858;25.974;2022-12-08T07:10:30;30.25;;;16.55;;
42168;SDS011;27838;43.858;25.974;2022-12-08T07:12:57;34.10;;;15.75;;
42168;SDS011;27838;43.858;25.974;2022-12-08T07:15:24;27.48;;;15.13;;
42168;SDS011;27838;43.858;25.974;2022-12-08T07:17:51;26.73;;;15.10;;
42168;SDS011;27838;43.858;25.974;2022-12-08T07:20:17;32.90;;;15.93;;
42168;SDS011;27838;43.858;25.974;2022-12-08T07:22:50;31.10;;;16.30;;
42168;SDS011;27838;43.858;25.974;2022-12-08T07:25:17;35.10;;;16.60;;
42168;SDS011;27838;43.858;25.974;2022-12-08T07:27:44;38.03;;;17.67;;
42168;SDS011;27838;43.858;25.974;2022-12-08T07:30:11;34.88;;;18.42;;
42168;SDS011;27838;43.858;25.974;2022-12-08T07:32:38;40.45;;;19.50;;
42168;SDS011;27838;43.858;25.974;2022-12-08T07:35:06;43.55;;;20.55;;
42168;SDS011;27838;43.858;25.974;2022-12-08T07:37:33;48.90;;;24.13;;
42168;SDS011;27838;43.858;25.974;2022-12-08T07:40:01;43.63;;;20.45;;
42168;SDS011;27838;43.858;25.974;2022-12-08T07:42:28;42.53;;;20.63;;
42168;SDS011;27838;43.858;25.974;2022-12-08T07:44:55;41.20;;;20.85;;
42168;SDS011;27838;43.858;25.974;2022-12-08T07:47:21;43.65;;;21.95;;
42168;SDS011;27838;43.858;25.974;2022-12-08T07:49:48;42.70;;;21.50;;
42168;SDS011;27838;43.858;25.974;2022-12-08T07:52:14;46.40;;;21.05;;
42168;SDS011;27838;43.858;25.974;2022-12-08T07:54:41;44.20;;;22.58;;
42168;SDS011;27838;43.858;25.974;2022-12-08T07:57:07;42.17;;;21.98;;
42168;SDS011;27838;43.858;25.974;2022-12-08T07:59:34;41.05;;;20.55;;
42168;SDS011;27838;43.858;25.974;2022-12-08T08:02:01;40.05;;;20.50;;
42168;SDS011;27838;43.858;25.974;2022-12-08T08:04:27;43.33;;;20.95;;
42168;SDS011;27838;43.858;25.974;2022-12-08T08:06:54;39.63;;;21.00;;
42168;SDS011;27838;43.858;25.974;2022-12-08T08:09:21;43.05;;;21.55;;
42168;SDS011;27838;43.858;25.974;2022-12-08T08:11:47;41.58;;;21.02;;
42168;SDS011;27838;43.858;25.974;2022-12-08T08:14:14;47.38;;;22.55;;
42168;SDS011;27838;43.858;25.974;2022-12-08T08:16:40;40.97;;;21.13;;
42168;SDS011;27838;43.858;25.974;2022-12-08T08:19:10;43.22;;;21.83;;
42168;SDS011;27838;43.858;25.974;2022-12-08T08:21:37;37.70;;;21.42;;
42168;SDS011;27838;43.858;25.974;2022-12-08T08:24:03;37.70;;;20.52;;
42168;SDS011;27838;43.858;25.974;2022-12-08T08:26:30;40.88;;;21.45;;
42168;SDS011;27838;43.858;25.974;2022-12-08T08:28:57;38.67;;;20.92;;
42168;SDS011;27838;43.858;25.974;2022-12-08T08:31:24;45.30;;;22.15;;
42168;SDS011;27838;43.858;25.974;2022-12-08T08:33:51;41.97;;;21.45;;
42168;SDS011;27838;43.858;25.974;2022-12-08T08:36:18;41.08;;;22.67;;
42168;SDS011;27838;43.858;25.974;2022-12-08T08:38:46;41.78;;;21.63;;
42168;SDS011;27838;43.858;25.974;2022-12-08T08:41:12;47.00;;;22.15;;
42168;SDS011;27838;43.858;25.974;2022-12-08T08:43:39;45.03;;;21.75;;
42168;SDS011;27838;43.858;25.974;2022-12-08T08:46:05;41.78;;;21.85;;
42168;SDS011;27838;43.858;25.974;2022-12-08T08:48:32;46.25;;;21.80;;
42168;SDS011;27838;43.858;25.974;2022-12-08T08:51:05;40.67;;;21.23;;
42168;SDS011;27838;43.858;25.974;2022-12-08T08:53:36;42.28;;;21.83;;
42168;SDS011;27838;43.858;25.974;2022-12-08T08:56:06;41.30;;;20.77;;
42168;SDS011;27838;43.858;25.974;2022-12-08T08:58:36;40.30;;;21.33;;
42168;SDS011;27838;43.858;25.974;2022-12-08T09:01:03;45.00;;;22.00;;
42168;SDS011;27838;43.858;25.974;2022-12-08T09:03:30;40.70;;;21.05;;
42168;SDS011;27838;43.858;25.974;2022-12-08T09:05:56;46.15;;;22.20;;
42168;SDS011;27838;43.858;25.974;2022-12-08T09:08:24;35.90;;;20.48;;
42168;SDS011;27838;43.858;25.974;2022-12-08T09:10:50;44.85;;;22.00;;
42168;SDS011;27838;43.858;25.974;2022-12-08T09:13:17;44.47;;;23.45;;
42168;SDS011;27838;43.858;25.974;2022-12-08T09:15:44;45.17;;;23.95;;
42168;SDS011;27838;43.858;25.974;2022-12-08T09:18:10;43.22;;;24.23;;
42168;SDS011;27838;43.858;25.974;2022-12-08T09:20:37;65.63;;;28.85;;
42168;SDS011;27838;43.858;25.974;2022-12-08T09:23:03;48.72;;;25.42;;
42168;SDS011;27838;43.858;25.974;2022-12-08T09:25:30;49.25;;;24.48;;
42168;SDS011;27838;43.858;25.974;2022-12-08T09:27:56;49.53;;;24.65;;
42168;SDS011;27838;43.858;25.974;2022-12-08T09:30:23;44.65;;;23.13;;
42168;SDS011;27838;43.858;25.974;2022-12-08T09:32:49;55.00;;;26.15;;
42168;SDS011;27838;43.858;25.974;2022-12-08T09:35:16;53.28;;;26.02;;
42168;SDS011;27838;43.858;25.974;2022-12-08T09:37:42;43.67;;;22.35;;
42168;SDS011;27838;43.858;25.974;2022-12-08T09:40:10;50.13;;;25.85;;
42168;SDS011;27838;43.858;25.974;2022-12-08T09:45:17;47.55;;;24.98;;
42168;SDS011;27838;43.858;25.974;2022-12-08T09:50:38;52.33;;;25.00;;
42168;SDS011;27838;43.858;25.974;2022-12-08T09:53:13;54.63;;;27.38;;
42168;SDS011;27838;43.858;25.974;2022-12-08T09:55:56;45.33;;;25.58;;
42168;SDS011;27838;43.858;25.974;2022-12-08T10:01:16;49.78;;;25.20;;
42168;SDS011;27838;43.858;25.974;2022-12-08T10:03:43;47.45;;;25.45;;
42168;SDS011;27838;43.858;25.974;2022-12-08T10:09:11;66.20;;;34.15;;
42168;SDS011;27838;43.858;25.974;2022-12-08T10:11:54;68.70;;;34.22;;
42168;SDS011;27838;43.858;25.974;2022-12-08T10:14:28;61.97;;;31.70;;
42168;SDS011;27838;43.858;25.974;2022-12-08T10:20:05;79.40;;;36.60;;
42168;SDS011;27838;43.858;25.974;2022-12-08T10:22:37;77.28;;;37.65;;
42168;SDS011;27838;43.858;25.974;2022-12-08T10:25:06;78.25;;;37.15;;
42168;SDS011;27838;43.858;25.974;2022-12-08T10:27:37;82.63;;;37.08;;
42168;SDS011;27838;43.858;25.974;2022-12-08T10:30:10;79.60;;;38.28;;
42168;SDS011;27838;43.858;25.974;2022-12-08T10:32:43;75.43;;;36.70;;
42168;SDS011;27838;43.858;25.974;2022-12-08T10:35:12;77.00;;;36.17;;
42168;SDS011;27838;43.858;25.974;2022-12-08T10:37:41;86.75;;;37.92;;
42168;SDS011;27838;43.858;25.974;2022-12-08T10:40:21;72.57;;;36.45;;
42168;SDS011;27838;43.858;25.974;2022-12-08T10:42:50;71.47;;;36.25;;
42168;SDS011;27838;43.858;25.974;2022-12-08T10:50:43;88.43;;;38.63;;
42168;SDS011;27838;43.858;25.974;2022-12-08T10:56:04;70.50;;;34.50;;
42168;SDS011;27838;43.858;25.974;2022-12-08T10:58:34;68.28;;;32.00;;
42168;SDS011;27838;43.858;25.974;2022-12-08T11:01:24;70.00;;;31.42;;
42168;SDS011;27838;43.858;25.974;2022-12-08T11:03:56;60.40;;;29.85;;
42168;SDS011;27838;43.858;25.974;2022-12-08T11:08:56;78.20;;;33.80;;
42168;SDS011;27838;43.858;25.974;2022-12-08T11:14:11;59.40;;;32.03;;
42168;SDS011;27838;43.858;25.974;2022-12-08T11:16:43;64.43;;;32.67;;
42168;SDS011;27838;43.858;25.974;2022-12-08T11:19:14;66.28;;;31.98;;
42168;SDS011;27838;43.858;25.974;2022-12-08T11:21:43;61.67;;;32.70;;
42168;SDS011;27838;43.858;25.974;2022-12-08T11:26:40;78.43;;;33.97;;
42168;SDS011;27838;43.858;25.974;2022-12-08T11:29:14;71.03;;;32.55;;
42168;SDS011;27838;43.858;25.974;2022-12-08T11:31:47;72.63;;;34.58;;
42168;SDS011;27838;43.858;25.974;2022-12-08T11:34:19;60.60;;;31.80;;
42168;SDS011;27838;43.858;25.974;2022-12-08T11:37:11;56.00;;;28.45;;
42168;SDS011;27838;43.858;25.974;2022-12-08T11:39:52;59.10;;;29.88;;
42168;SDS011;27838;43.858;25.974;2022-12-08T11:42:21;57.30;;;30.60;;
42168;SDS011;27838;43.858;25.974;2022-12-08T11:44:55;56.55;;;30.55;;
42168;SDS011;27838;43.858;25.974;2022-12-08T11:47:24;74.90;;;37.72;;
42168;SDS011;27838;43.858;25.974;2022-12-08T11:50:19;76.75;;;36.28;;
42168;SDS011;27838;43.858;25.974;2022-12-08T11:52:51;67.18;;;33.25;;
42168;SDS011;27838;43.858;25.974;2022-12-08T11:58:22;80.10;;;38.05;;
42168;SDS011;27838;43.858;25.974;2022-12-08T12:01:10;69.00;;;34.08;;
42168;SDS011;27838;43.858;25.974;2022-12-08T12:03:46;63.20;;;32.97;;
42168;SDS011;27838;43.858;25.974;2022-12-08T12:19:55;66.55;;;33.63;;
42168;SDS011;27838;43.858;25.974;2022-12-08T12:22:28;64.18;;;32.40;;
42168;SDS011;27838;43.858;25.974;2022-12-08T12:24:59;73.32;;;36.47;;
42168;SDS011;27838;43.858;25.974;2022-12-08T12:27:29;72.35;;;36.25;;
42168;SDS011;27838;43.858;25.974;2022-12-08T12:30:05;56.88;;;32.17;;
42168;SDS011;27838;43.858;25.974;2022-12-08T12:32:42;57.40;;;31.63;;
42168;SDS011;27838;43.858;25.974;2022-12-08T12:35:16;43.13;;;26.98;;
42168;SDS011;27838;43.858;25.974;2022-12-08T12:37:55;55.65;;;29.52;;
42168;SDS011;27838;43.858;25.974;2022-12-08T12:41:06;67.88;;;32.20;;
42168;SDS011;27838;43.858;25.974;2022-12-08T12:43:35;59.15;;;31.83;;
42168;SDS011;27838;43.858;25.974;2022-12-08T12:48:50;59.58;;;33.17;;
42168;SDS011;27838;43.858;25.974;2022-12-08T12:51:34;54.90;;;31.15;;
42168;SDS011;27838;43.858;25.974;2022-12-08T12:54:20;53.10;;;30.98;;
42168;SDS011;27838;43.858;25.974;2022-12-08T12:59:47;61.40;;;30.33;;
42168;SDS011;27838;43.858;25.974;2022-12-08T13:02:36;50.60;;;27.67;;
42168;SDS011;27838;43.858;25.974;2022-12-08T13:05:18;52.08;;;26.92;;
42168;SDS011;27838;43.858;25.974;2022-12-08T13:07:56;47.00;;;27.55;;
42168;SDS011;27838;43.858;25.974;2022-12-08T13:15:37;64.45;;;32.22;;
42168;SDS011;27838;43.858;25.974;2022-12-08T13:18:06;55.28;;;31.92;;
42168;SDS011;27838;43.858;25.974;2022-12-08T13:20:49;51.55;;;28.95;;
42168;SDS011;27838;43.858;25.974;2022-12-08T13:26:16;56.53;;;31.48;;
42168;SDS011;27838;43.858;25.974;2022-12-08T13:31:37;52.92;;;28.63;;
42168;SDS011;27838;43.858;25.974;2022-12-08T13:39:54;51.33;;;27.40;;
42168;SDS011;27838;43.858;25.974;2022-12-08T13:42:30;51.13;;;28.80;;
42168;SDS011;27838;43.858;25.974;2022-12-08T13:47:36;56.72;;;30.00;;
42168;SDS011;27838;43.858;25.974;2022-12-08T13:50:08;56.03;;;30.58;;
42168;SDS011;27838;43.858;25.974;2022-12-08T13:55:21;51.30;;;28.80;;
42168;SDS011;27838;43.858;25.974;2022-12-08T13:57:54;49.33;;;27.77;;
42168;SDS011;27838;43.858;25.974;2022-12-08T14:00:22;47.63;;;26.83;;
42168;SDS011;27838;43.858;25.974;2022-12-08T14:02:51;51.35;;;27.15;;
42168;SDS011;27838;43.858;25.974;2022-12-08T14:05:22;54.88;;;27.40;;
42168;SDS011;27838;43.858;25.974;2022-12-08T14:07:52;52.17;;;27.10;;
42168;SDS011;27838;43.858;25.974;2022-12-08T14:12:57;54.95;;;29.55;;
42168;SDS011;27838;43.858;25.974;2022-12-08T14:15:26;53.42;;;26.77;;
42168;SDS011;27838;43.858;25.974;2022-12-08T14:17:57;56.67;;;28.35;;
42168;SDS011;27838;43.858;25.974;2022-12-08T14:20:27;48.78;;;26.45;;
42168;SDS011;27838;43.858;25.974;2022-12-08T14:22:56;49.67;;;24.75;;
42168;SDS011;27838;43.858;25.974;2022-12-08T14:25:24;47.08;;;23.83;;
42168;SDS011;27838;43.858;25.974;2022-12-08T14:27:57;54.50;;;25.95;;
42168;SDS011;27838;43.858;25.974;2022-12-08T14:30:26;41.97;;;22.50;;
42168;SDS011;27838;43.858;25.974;2022-12-08T14:32:56;39.58;;;21.58;;
42168;SDS011;27838;43.858;25.974;2022-12-08T14:35:26;34.78;;;18.80;;
42168;SDS011;27838;43.858;25.974;2022-12-08T14:38:03;40.72;;;20.40;;
42168;SDS011;27838;43.858;25.974;2022-12-08T14:40:40;40.03;;;22.48;;
42168;SDS011;27838;43.858;25.974;2022-12-08T14:48:23;32.70;;;18.38;;
42168;SDS011;27838;43.858;25.974;2022-12-08T14:53:30;43.10;;;20.85;;
42168;SDS011;27838;43.858;25.974;2022-12-08T14:58:30;35.20;;;18.58;;
42168;SDS011;27838;43.858;25.974;2022-12-08T15:00:58;38.28;;;19.10;;
42168;SDS011;27838;43.858;25.974;2022-12-08T15:03:26;41.03;;;19.75;;
42168;SDS011;27838;43.858;25.974;2022-12-08T15:05:56;33.58;;;17.33;;
42168;SDS011;27838;43.858;25.974;2022-12-08T15:08:25;46.83;;;20.88;;
42168;SDS011;27838;43.858;25.974;2022-12-08T15:11:11;31.45;;;17.42;;
42168;SDS011;27838;43.858;25.974;2022-12-08T15:13:58;41.97;;;24.40;;
42168;SDS011;27838;43.858;25.974;2022-12-08T15:16:29;29.02;;;17.50;;
42168;SDS011;27838;43.858;25.974;2022-12-08T15:19:22;29.55;;;16.40;;
42168;SDS011;27838;43.858;25.974;2022-12-08T15:21:57;30.42;;;17.02;;
42168;SDS011;27838;43.858;25.974;2022-12-08T15:24:34;29.88;;;18.05;;
42168;SDS011;27838;43.858;25.974;2022-12-08T15:27:00;32.97;;;17.67;;
42168;SDS011;27838;43.858;25.974;2022-12-08T15:29:29;31.50;;;19.05;;
42168;SDS011;27838;43.858;25.974;2022-12-08T15:31:57;29.13;;;17.13;;
42168;SDS011;27838;43.858;25.974;2022-12-08T15:34:25;32.38;;;19.52;;
42168;SDS011;27838;43.858;25.974;2022-12-08T15:36:52;28.30;;;16.40;;
42168;SDS011;27838;43.858;25.974;2022-12-08T15:39:29;30.30;;;16.58;;
42168;SDS011;27838;43.858;25.974;2022-12-08T15:42:01;35.60;;;16.38;;
42168;SDS011;27838;43.858;25.974;2022-12-08T15:44:29;29.25;;;16.42;;
42168;SDS011;27838;43.858;25.974;2022-12-08T15:46:57;31.88;;;17.90;;
42168;SDS011;27838;43.858;25.974;2022-12-08T15:49:24;31.83;;;17.95;;
42168;SDS011;27838;43.858;25.974;2022-12-08T15:51:51;28.17;;;16.77;;
42168;SDS011;27838;43.858;25.974;2022-12-08T15:54:18;41.42;;;17.35;;
42168;SDS011;27838;43.858;25.974;2022-12-08T15:56:45;34.53;;;18.35;;
42168;SDS011;27838;43.858;25.974;2022-12-08T15:59:18;37.03;;;19.67;;
42168;SDS011;27838;43.858;25.974;2022-12-08T16:01:46;30.45;;;17.17;;
42168;SDS011;27838;43.858;25.974;2022-12-08T16:04:14;38.67;;;18.58;;
42168;SDS011;27838;43.858;25.974;2022-12-08T16:06:44;32.80;;;16.60;;
42168;SDS011;27838;43.858;25.974;2022-12-08T16:09:14;31.95;;;16.60;;
42168;SDS011;27838;43.858;25.974;2022-12-08T16:11:43;34.53;;;18.30;;
42168;SDS011;27838;43.858;25.974;2022-12-08T16:14:28;35.38;;;19.73;;
42168;SDS011;27838;43.858;25.974;2022-12-08T16:16:54;31.98;;;18.30;;
42168;SDS011;27838;43.858;25.974;2022-12-08T16:19:21;32.58;;;17.40;;
42168;SDS011;27838;43.858;25.974;2022-12-08T16:21:48;26.65;;;15.98;;
42168;SDS011;27838;43.858;25.974;2022-12-08T16:24:14;32.60;;;17.80;;
42168;SDS011;27838;43.858;25.974;2022-12-08T16:26:41;31.95;;;17.67;;
42168;SDS011;27838;43.858;25.974;2022-12-08T16:29:08;33.00;;;16.77;;